Time;durP1;ratioP1;P1;durP2;ratioP2;P2;SDS_P1;SDS_P2;PMS_P1;PMS_P2;Temp;Humidity;BMP_temperature;BMP_pressure;BME280_temperature;BME280_humidity;BME280_pressure;Samples;Min_cycle;Max_cycle;Signal;HPM_P1;HPM_P2
2021/06/28 00:01:08;;;;;;;3.60;3.40;;;;;;;;;;491778;241;27433;-73
2021/06/28 00:03:11;;;;;;;3.90;3.60;;;;;;;;;;491915;241;27493;-72
2021/06/28 00:05:13;;;;;;;4.00;3.60;;;;;;;;;;491935;241;27472;-73
2021/06/28 00:07:15;;;;;;;3.60;3.30;;;;;;;;;;491799;241;27457;-73
2021/06/28 00:09:17;;;;;;;3.50;3.30;;;;;;;;;;491885;241;27499;-72
2021/06/28 00:11:19;;;;;;;4.47;4.07;;;;;;;;;;491834;241;27385;-73
2021/06/28 00:13:21;;;;;;;3.70;3.40;;;;;;;;;;491904;241;27389;-73
2021/06/28 00:15:23;;;;;;;3.90;3.60;;;;;;;;;;491878;242;27377;-73
2021/06/28 00:17:25;;;;;;;3.70;3.50;;;;;;;;;;491883;242;27413;-73
2021/06/28 00:19:27;;;;;;;3.67;3.40;;;;;;;;;;491896;241;27378;-73
2021/06/28 00:21:30;;;;;;;3.83;3.53;;;;;;;;;;491910;241;27411;-73
2021/06/28 00:23:32;;;;;;;3.80;3.07;;;;;;;;;;491899;241;27410;-73
2021/06/28 00:25:34;;;;;;;4.03;3.73;;;;;;;;;;491900;241;27813;-73
2021/06/28 00:27:36;;;;;;;3.60;3.40;;;;;;;;;;491914;241;27385;-73
2021/06/28 00:29:38;;;;;;;3.90;3.60;;;;;;;;;;491914;241;27929;-73
2021/06/28 00:31:40;;;;;;;3.00;2.80;;;;;;;;;;491942;241;27537;-73
2021/06/28 00:33:42;;;;;;;3.50;3.20;;;;;;;;;;491910;242;28549;-73
2021/06/28 00:35:44;;;;;;;3.60;3.40;;;;;;;;;;491885;241;27406;-73
2021/06/28 00:37:46;;;;;;;3.83;3.53;;;;;;;;;;491886;241;27948;-73
2021/06/28 00:39:49;;;;;;;3.70;3.40;;;;;;;;;;491897;242;27410;-73
2021/06/28 00:41:51;;;;;;;3.33;3.13;;;;;;;;;;491913;241;27930;-73
2021/06/28 00:43:53;;;;;;;3.90;3.63;;;;;;;;;;491896;241;27417;-73
2021/06/28 00:45:55;;;;;;;3.63;3.30;;;;;;;;;;491907;241;27953;-73
2021/06/28 00:47:57;;;;;;;4.03;3.30;;;;;;;;;;491890;241;27436;-73
2021/06/28 00:49:59;;;;;;;4.13;3.77;;;;;;;;;;491908;241;27413;-73
2021/06/28 00:52:01;;;;;;;4.37;3.97;;;;;;;;;;491888;241;27421;-73
2021/06/28 00:54:03;;;;;;;4.10;3.77;;;;;;;;;;491886;241;27440;-74
2021/06/28 00:56:12;;;;;;;4.17;3.87;;;;;;;;;;491905;241;27445;-73
2021/06/28 00:58:14;;;;;;;4.93;4.20;;;;;;;;;;491866;240;28002;-73
2021/06/28 01:00:16;;;;;;;8.03;3.90;;;;;;;;;;491886;241;27509;-73
2021/06/28 01:02:18;;;;;;;4.07;3.77;;;;;;;;;;491880;242;28018;-73
2021/06/28 01:04:20;;;;;;;3.77;3.47;;;;;;;;;;491832;241;27513;-73
2021/06/28 01:06:22;;;;;;;4.23;3.83;;;;;;;;;;491896;240;27485;-73
2021/06/28 01:08:24;;;;;;;3.93;3.63;;;;;;;;;;491901;241;27428;-73
2021/06/28 01:10:26;;;;;;;3.87;3.57;;;;;;;;;;491878;241;27476;-73
2021/06/28 01:12:28;;;;;;;3.83;3.53;;;;;;;;;;491864;241;27504;-72
2021/06/28 01:14:30;;;;;;;4.47;4.13;;;;;;;;;;491887;241;27409;-73
2021/06/28 01:16:33;;;;;;;4.80;4.40;;;;;;;;;;491886;241;27464;-73
2021/06/28 01:18:35;;;;;;;4.40;4.00;;;;;;;;;;491890;241;27381;-73
2021/06/28 01:20:37;;;;;;;4.23;3.93;;;;;;;;;;491905;241;27472;-73
2021/06/28 01:22:39;;;;;;;4.50;4.10;;;;;;;;;;491921;241;27389;-73
2021/06/28 01:24:41;;;;;;;4.33;3.93;;;;;;;;;;491932;241;27398;-73
2021/06/28 01:26:43;;;;;;;4.20;3.90;;;;;;;;;;491883;241;27366;-74
2021/06/28 01:28:45;;;;;;;4.13;3.83;;;;;;;;;;491911;241;27386;-73
2021/06/28 01:30:47;;;;;;;4.80;4.30;;;;;;;;;;491894;241;27364;-73
2021/06/28 01:32:49;;;;;;;4.27;3.97;;;;;;;;;;491907;242;27401;-73
2021/06/28 01:34:52;;;;;;;4.10;3.80;;;;;;;;;;491913;241;27429;-73
2021/06/28 01:36:54;;;;;;;4.40;4.03;;;;;;;;;;491883;241;27457;-73
2021/06/28 01:38:56;;;;;;;4.70;4.30;;;;;;;;;;491903;242;27483;-73
2021/06/28 01:40:58;;;;;;;4.70;4.40;;;;;;;;;;491931;241;27385;-74
2021/06/28 01:43:00;;;;;;;3.80;3.50;;;;;;;;;;491921;241;27492;-73
2021/06/28 01:45:02;;;;;;;3.60;3.30;;;;;;;;;;491922;241;27489;-73
2021/06/28 01:47:04;;;;;;;3.37;3.10;;;;;;;;;;491924;241;27413;-73
2021/06/28 01:49:06;;;;;;;3.87;3.57;;;;;;;;;;491927;241;27417;-74
2021/06/28 01:51:10;;;;;;;3.57;3.27;;;;;;;;;;491826;241;27472;-73
2021/06/28 01:53:11;;;;;;;4.40;4.00;;;;;;;;;;491934;240;27491;-74
2021/06/28 01:55:13;;;;;;;3.87;3.57;;;;;;;;;;491864;242;27462;-73
2021/06/28 01:57:15;;;;;;;4.00;3.70;;;;;;;;;;491892;241;27496;-73
2021/06/28 01:59:17;;;;;;;3.63;3.37;;;;;;;;;;491885;241;27480;-74
2021/06/28 02:01:19;;;;;;;3.80;3.50;;;;;;;;;;491929;242;27499;-73
2021/06/28 02:03:21;;;;;;;3.43;3.23;;;;;;;;;;491888;241;27483;-73
2021/06/28 02:05:23;;;;;;;3.97;3.57;;;;;;;;;;491903;241;27504;-73
2021/06/28 02:07:25;;;;;;;3.63;3.43;;;;;;;;;;491903;241;27405;-73
2021/06/28 02:09:28;;;;;;;3.53;3.23;;;;;;;;;;491916;241;27492;-71
2021/06/28 02:11:30;;;;;;;3.33;3.13;;;;;;;;;;491889;241;27472;-73
2021/06/28 02:13:32;;;;;;;3.63;3.33;;;;;;;;;;491901;241;27401;-73
2021/06/28 02:15:34;;;;;;;3.70;3.40;;;;;;;;;;491902;241;27433;-73
2021/06/28 02:17:36;;;;;;;3.53;3.23;;;;;;;;;;491912;242;27452;-73
2021/06/28 02:19:38;;;;;;;3.43;3.20;;;;;;;;;;491908;242;27456;-73
2021/06/28 02:21:40;;;;;;;4.07;3.77;;;;;;;;;;491905;241;27502;-73
2021/06/28 02:23:42;;;;;;;3.70;3.40;;;;;;;;;;491906;241;27375;-73
2021/06/28 02:25:44;;;;;;;2.97;2.77;;;;;;;;;;491910;241;27468;-73
2021/06/28 02:27:47;;;;;;;3.00;2.80;;;;;;;;;;491928;241;27369;-73
2021/06/28 02:29:49;;;;;;;3.27;3.00;;;;;;;;;;491910;241;27389;-71
2021/06/28 02:31:51;;;;;;;3.13;2.93;;;;;;;;;;491917;241;27445;-74
2021/06/28 02:33:53;;;;;;;3.57;3.37;;;;;;;;;;491907;241;27378;-72
2021/06/28 02:35:55;;;;;;;3.70;3.40;;;;;;;;;;491926;242;27389;-74
2021/06/28 02:37:57;;;;;;;4.83;3.63;;;;;;;;;;491906;242;27428;-73
2021/06/28 02:39:59;;;;;;;3.90;3.60;;;;;;;;;;491899;241;27513;-72
2021/06/28 02:42:01;;;;;;;4.13;3.83;;;;;;;;;;491907;241;27410;-74
2021/06/28 02:44:03;;;;;;;3.90;3.50;;;;;;;;;;491904;242;27403;-74
2021/06/28 02:46:06;;;;;;;3.90;3.60;;;;;;;;;;491879;241;27405;-72
2021/06/28 02:48:08;;;;;;;3.70;3.50;;;;;;;;;;491717;241;27401;-74
2021/06/28 02:50:10;;;;;;;3.77;3.50;;;;;;;;;;491909;241;27409;-74
2021/06/28 02:52:12;;;;;;;3.67;3.37;;;;;;;;;;491897;241;27492;-73
2021/06/28 02:54:14;;;;;;;3.03;2.83;;;;;;;;;;491879;242;27440;-73
2021/06/28 02:56:16;;;;;;;3.77;3.47;;;;;;;;;;491888;241;27616;-73
2021/06/28 02:58:18;;;;;;;3.47;3.17;;;;;;;;;;491906;242;27421;-73
2021/06/28 03:00:20;;;;;;;3.70;3.40;;;;;;;;;;491933;241;27418;-73
2021/06/28 03:02:22;;;;;;;2.90;2.70;;;;;;;;;;491914;241;27417;-73
2021/06/28 03:04:25;;;;;;;3.47;3.17;;;;;;;;;;491900;241;27413;-73
2021/06/28 03:06:27;;;;;;;3.53;3.23;;;;;;;;;;491886;241;27528;-73
2021/06/28 03:08:29;;;;;;;3.40;3.10;;;;;;;;;;491902;242;27393;-73
2021/06/28 03:10:31;;;;;;;2.60;2.50;;;;;;;;;;491893;241;27559;-74
2021/06/28 03:12:33;;;;;;;2.90;2.70;;;;;;;;;;491902;241;27481;-73
2021/06/28 03:14:35;;;;;;;3.30;3.10;;;;;;;;;;491879;241;27480;-73
2021/06/28 03:16:37;;;;;;;2.90;2.70;;;;;;;;;;491920;241;27446;-73
2021/06/28 03:18:39;;;;;;;3.40;3.20;;;;;;;;;;491925;241;27389;-74
2021/06/28 03:20:42;;;;;;;3.23;3.00;;;;;;;;;;491903;241;27373;-73
2021/06/28 03:22:44;;;;;;;3.40;3.10;;;;;;;;;;491931;241;27464;-73
2021/06/28 03:24:46;;;;;;;3.33;3.03;;;;;;;;;;491888;241;27465;-72
2021/06/28 03:26:48;;;;;;;2.80;2.60;;;;;;;;;;491943;241;27469;-73
2021/06/28 03:28:50;;;;;;;3.13;2.90;;;;;;;;;;491923;242;27457;-73
2021/06/28 03:30:52;;;;;;;4.20;3.10;;;;;;;;;;491897;241;27476;-73
2021/06/28 03:32:54;;;;;;;3.17;2.97;;;;;;;;;;491910;241;27420;-73
2021/06/28 03:34:56;;;;;;;3.20;3.00;;;;;;;;;;491897;241;27477;-73
2021/06/28 03:36:58;;;;;;;3.20;3.00;;;;;;;;;;491898;241;27385;-73
2021/06/28 03:39:01;;;;;;;3.30;3.00;;;;;;;;;;491918;241;27480;-73
2021/06/28 03:41:03;;;;;;;3.57;3.30;;;;;;;;;;491861;241;27859;-73
2021/06/28 03:43:05;;;;;;;3.50;3.23;;;;;;;;;;491943;241;27441;-73
2021/06/28 03:45:07;;;;;;;3.13;2.90;;;;;;;;;;491931;242;27492;-73
2021/06/28 03:47:09;;;;;;;3.07;2.87;;;;;;;;;;491925;241;27426;-73
2021/06/28 03:49:11;;;;;;;3.43;3.20;;;;;;;;;;491902;241;27417;-73
2021/06/28 03:51:13;;;;;;;2.93;2.73;;;;;;;;;;491916;241;27421;-73
2021/06/28 03:53:15;;;;;;;2.87;2.67;;;;;;;;;;491931;241;27472;-74
2021/06/28 03:55:17;;;;;;;2.90;2.60;;;;;;;;;;491913;241;27424;-73
2021/06/28 03:57:20;;;;;;;3.13;2.83;;;;;;;;;;491861;241;27420;-73
2021/06/28 03:59:22;;;;;;;3.00;2.80;;;;;;;;;;491903;241;27393;-73
2021/06/28 04:01:24;;;;;;;2.60;2.50;;;;;;;;;;491946;241;27416;-73
2021/06/28 04:03:28;;;;;;;2.77;2.63;;;;;;;;;;491913;241;27489;-73
2021/06/28 04:05:28;;;;;;;3.07;2.87;;;;;;;;;;491934;240;27481;-73
2021/06/28 04:07:30;;;;;;;3.60;3.33;;;;;;;;;;491932;241;27421;-73
2021/06/28 04:09:32;;;;;;;2.90;2.70;;;;;;;;;;491930;242;27433;-73
2021/06/28 04:11:34;;;;;;;2.63;2.43;;;;;;;;;;491914;241;27477;-73
2021/06/28 04:13:36;;;;;;;2.63;2.53;;;;;;;;;;491917;241;27370;-73
2021/06/28 04:15:39;;;;;;;3.20;3.00;;;;;;;;;;491938;241;27465;-73
2021/06/28 04:17:41;;;;;;;2.93;2.73;;;;;;;;;;491905;241;27398;-74
2021/06/28 04:19:43;;;;;;;2.80;2.60;;;;;;;;;;491887;241;27488;-73
2021/06/28 04:21:45;;;;;;;3.07;2.87;;;;;;;;;;491891;241;27457;-73
2021/06/28 04:23:47;;;;;;;2.70;2.50;;;;;;;;;;491881;241;27377;-73
2021/06/28 04:25:49;;;;;;;2.90;2.63;;;;;;;;;;491909;241;27449;-73
2021/06/28 04:27:51;;;;;;;2.70;2.50;;;;;;;;;;491837;241;27424;-73
2021/06/28 04:29:53;;;;;;;2.97;2.77;;;;;;;;;;491894;241;27366;-73
2021/06/28 04:31:56;;;;;;;2.90;2.70;;;;;;;;;;491873;241;27376;-73
2021/06/28 04:33:58;;;;;;;3.33;3.13;;;;;;;;;;491896;241;27375;-73
2021/06/28 04:36:00;;;;;;;2.80;2.60;;;;;;;;;;491928;241;27478;-74
2021/06/28 04:38:02;;;;;;;2.90;2.70;;;;;;;;;;491889;241;27423;-74
2021/06/28 04:40:04;;;;;;;2.73;2.57;;;;;;;;;;491820;241;27369;-73
2021/06/28 04:42:06;;;;;;;3.13;2.93;;;;;;;;;;491923;242;27492;-73
2021/06/28 04:44:08;;;;;;;2.83;2.63;;;;;;;;;;491916;242;27427;-74
2021/06/28 04:46:10;;;;;;;3.20;3.00;;;;;;;;;;491894;241;28096;-73
2021/06/28 04:48:14;;;;;;;3.47;3.17;;;;;;;;;;491889;241;27509;-73
2021/06/28 04:50:15;;;;;;;3.27;3.03;;;;;;;;;;491907;240;27402;-73
2021/06/28 04:52:17;;;;;;;2.83;2.63;;;;;;;;;;491923;241;27406;-73
2021/06/28 04:54:19;;;;;;;3.00;2.80;;;;;;;;;;491708;241;27473;-74
2021/06/28 04:56:21;;;;;;;3.30;3.00;;;;;;;;;;491908;242;27417;-73
2021/06/28 04:58:23;;;;;;;3.43;3.10;;;;;;;;;;491717;241;27402;-73
2021/06/28 05:00:26;;;;;;;3.10;2.90;;;;;;;;;;491919;241;27417;-73
2021/06/28 05:02:27;;;;;;;2.80;2.60;;;;;;;;;;491927;241;27405;-73
2021/06/28 05:04:29;;;;;;;2.83;2.63;;;;;;;;;;491899;241;27587;-73
2021/06/28 05:06:31;;;;;;;3.10;2.90;;;;;;;;;;491906;241;27413;-74
2021/06/28 05:08:34;;;;;;;3.00;2.80;;;;;;;;;;491881;241;27492;-74
2021/06/28 05:10:36;;;;;;;3.13;2.93;;;;;;;;;;491925;241;27409;-73
2021/06/28 05:12:38;;;;;;;3.10;2.90;;;;;;;;;;491894;241;27480;-73
2021/06/28 05:14:40;;;;;;;3.10;2.90;;;;;;;;;;491904;241;27480;-74
2021/06/28 05:16:42;;;;;;;3.43;3.10;;;;;;;;;;491903;241;27424;-73
2021/06/28 05:18:44;;;;;;;3.00;2.80;;;;;;;;;;491932;241;27506;-73
2021/06/28 05:20:46;;;;;;;3.13;2.93;;;;;;;;;;491911;241;27545;-73
2021/06/28 05:22:48;;;;;;;3.03;2.83;;;;;;;;;;491894;241;27477;-74
2021/06/28 05:24:50;;;;;;;3.00;2.80;;;;;;;;;;491933;241;27456;-74
2021/06/28 05:26:53;;;;;;;2.70;2.57;;;;;;;;;;491939;241;27465;-74
2021/06/28 05:28:55;;;;;;;3.43;3.23;;;;;;;;;;491931;241;27385;-74
2021/06/28 05:30:57;;;;;;;3.17;2.97;;;;;;;;;;491934;241;27914;-74
2021/06/28 05:32:59;;;;;;;2.90;2.70;;;;;;;;;;491827;241;27477;-74
2021/06/28 05:35:01;;;;;;;2.93;2.73;;;;;;;;;;491941;241;27950;-74
2021/06/28 05:37:03;;;;;;;3.00;2.80;;;;;;;;;;491894;241;27393;-74
2021/06/28 05:39:05;;;;;;;2.90;2.70;;;;;;;;;;491916;241;27850;-74
2021/06/28 05:41:07;;;;;;;2.83;2.63;;;;;;;;;;491928;241;27377;-74
2021/06/28 05:43:09;;;;;;;2.97;2.77;;;;;;;;;;491894;241;27836;-74
2021/06/28 05:45:12;;;;;;;2.90;2.70;;;;;;;;;;491818;241;27436;-73
2021/06/28 05:47:16;;;;;;;3.20;2.90;;;;;;;;;;491863;241;27856;-73
2021/06/28 05:49:16;;;;;;;3.10;2.90;;;;;;;;;;491814;240;27484;-74
2021/06/28 05:51:19;;;;;;;3.10;2.90;;;;;;;;;;491870;241;27933;-73
2021/06/28 05:53:20;;;;;;;2.90;2.70;;;;;;;;;;491901;240;27508;-74
2021/06/28 05:55:22;;;;;;;2.90;2.70;;;;;;;;;;491886;241;27950;-74
2021/06/28 05:57:24;;;;;;;2.80;2.60;;;;;;;;;;491883;241;27389;-74
2021/06/28 05:59:26;;;;;;;2.90;2.43;;;;;;;;;;491889;242;27938;-74
2021/06/28 06:01:28;;;;;;;2.80;2.60;;;;;;;;;;491926;241;27386;-74
2021/06/28 06:03:31;;;;;;;3.00;2.80;;;;;;;;;;491896;241;28592;-74
2021/06/28 06:05:33;;;;;;;2.80;2.70;;;;;;;;;;491728;241;27405;-74
2021/06/28 06:07:35;;;;;;;2.67;2.47;;;;;;;;;;491892;241;27422;-73
2021/06/28 06:09:37;;;;;;;2.70;2.50;;;;;;;;;;491926;241;27426;-74
2021/06/28 06:11:39;;;;;;;2.70;2.57;;;;;;;;;;491942;241;27915;-74
2021/06/28 06:13:41;;;;;;;3.00;2.80;;;;;;;;;;491937;242;27544;-74
2021/06/28 06:15:43;;;;;;;2.80;2.60;;;;;;;;;;491902;241;27967;-73
2021/06/28 06:17:45;;;;;;;3.07;2.87;;;;;;;;;;491911;241;27500;-74
2021/06/28 06:19:48;;;;;;;2.90;2.70;;;;;;;;;;491928;241;27953;-74
2021/06/28 06:21:50;;;;;;;4.53;2.97;;;;;;;;;;491901;241;27414;-74
2021/06/28 06:23:52;;;;;;;3.00;2.80;;;;;;;;;;491929;241;27879;-74
2021/06/28 06:25:54;;;;;;;2.77;2.60;;;;;;;;;;491928;242;27544;-74
2021/06/28 06:27:56;;;;;;;2.67;2.57;;;;;;;;;;491950;241;27963;-73
2021/06/28 06:29:58;;;;;;;2.70;2.50;;;;;;;;;;491919;241;27492;-74
2021/06/28 06:32:00;;;;;;;2.83;2.63;;;;;;;;;;491931;241;27851;-73
2021/06/28 06:34:02;;;;;;;3.10;2.90;;;;;;;;;;491905;241;27401;-75
2021/06/28 06:36:04;;;;;;;3.10;2.90;;;;;;;;;;491903;240;27860;-73
2021/06/28 06:38:07;;;;;;;2.90;2.70;;;;;;;;;;491924;241;27453;-74
2021/06/28 06:40:09;;;;;;;3.30;3.10;;;;;;;;;;491924;241;27860;-74
2021/06/28 06:42:11;;;;;;;3.00;2.80;;;;;;;;;;491910;241;27485;-74
2021/06/28 06:44:13;;;;;;;3.20;3.00;;;;;;;;;;491902;241;27990;-73
2021/06/28 06:46:15;;;;;;;3.43;3.23;;;;;;;;;;491929;241;27456;-74
2021/06/28 06:48:17;;;;;;;2.90;2.70;;;;;;;;;;491928;241;27940;-74
2021/06/28 06:50:19;;;;;;;2.77;2.60;;;;;;;;;;491907;241;27485;-74
2021/06/28 06:52:21;;;;;;;3.27;3.07;;;;;;;;;;491914;241;27900;-74
2021/06/28 06:54:23;;;;;;;3.10;2.90;;;;;;;;;;491921;241;27395;-74
2021/06/28 06:56:26;;;;;;;3.10;2.90;;;;;;;;;;491851;241;27815;-74
2021/06/28 06:58:28;;;;;;;3.50;3.30;;;;;;;;;;491926;241;27413;-73
2021/06/28 07:00:30;;;;;;;2.90;2.70;;;;;;;;;;491828;241;27962;-73
2021/06/28 07:02:32;;;;;;;3.00;2.87;;;;;;;;;;491933;242;27433;-74
2021/06/28 07:04:34;;;;;;;3.03;2.83;;;;;;;;;;491889;241;27865;-74
2021/06/28 07:06:36;;;;;;;3.20;3.00;;;;;;;;;;491920;241;27422;-74
2021/06/28 07:08:38;;;;;;;3.13;2.93;;;;;;;;;;491936;241;27982;-74
2021/06/28 07:10:40;;;;;;;3.37;3.17;;;;;;;;;;491917;242;27419;-74
2021/06/28 07:12:42;;;;;;;3.20;3.00;;;;;;;;;;491905;242;27877;-74
2021/06/28 07:14:45;;;;;;;2.97;2.77;;;;;;;;;;491887;241;27413;-74
2021/06/28 07:16:47;;;;;;;3.03;2.83;;;;;;;;;;491775;241;27876;-74
2021/06/28 07:18:49;;;;;;;3.20;3.00;;;;;;;;;;491751;241;27428;-74
2021/06/28 07:20:51;;;;;;;2.30;2.20;;;;;;;;;;491734;241;27900;-74
2021/06/28 07:22:53;;;;;;;2.90;2.70;;;;;;;;;;491737;241;27417;-74
2021/06/28 07:24:55;;;;;;;3.17;2.93;;;;;;;;;;491895;241;27888;-74
2021/06/28 07:26:57;;;;;;;2.83;2.63;;;;;;;;;;491890;241;27493;-74
2021/06/28 07:28:59;;;;;;;3.10;2.90;;;;;;;;;;491917;241;27913;-75
2021/06/28 07:31:02;;;;;;;3.07;2.90;;;;;;;;;;491895;241;27473;-74
2021/06/28 07:33:04;;;;;;;3.00;2.80;;;;;;;;;;491897;241;27836;-74
2021/06/28 07:35:06;;;;;;;2.93;2.73;;;;;;;;;;491896;241;27457;-74
2021/06/28 07:37:08;;;;;;;3.27;3.07;;;;;;;;;;491892;242;27825;-74
2021/06/28 07:39:10;;;;;;;3.57;3.30;;;;;;;;;;491885;241;27382;-74
2021/06/28 07:41:12;;;;;;;3.23;3.03;;;;;;;;;;491888;241;27891;-74
2021/06/28 07:43:14;;;;;;;3.17;2.97;;;;;;;;;;491860;241;27519;-74
2021/06/28 07:45:16;;;;;;;2.73;2.53;;;;;;;;;;491773;241;27853;-74
2021/06/28 07:47:18;;;;;;;3.07;2.87;;;;;;;;;;491920;241;27468;-73
2021/06/28 07:49:21;;;;;;;3.40;2.90;;;;;;;;;;491880;241;27848;-75
2021/06/28 07:51:23;;;;;;;2.63;2.53;;;;;;;;;;491891;241;27381;-74
2021/06/28 07:53:25;;;;;;;2.73;2.57;;;;;;;;;;491887;241;27847;-74
2021/06/28 07:55:27;;;;;;;3.00;2.80;;;;;;;;;;491932;241;27378;-74
2021/06/28 07:57:29;;;;;;;3.00;2.80;;;;;;;;;;491901;242;27911;-74
2021/06/28 07:59:31;;;;;;;2.67;2.57;;;;;;;;;;491901;241;27401;-74
2021/06/28 08:01:33;;;;;;;3.20;3.00;;;;;;;;;;491898;241;27896;-74
2021/06/28 08:03:36;;;;;;;3.40;3.13;;;;;;;;;;491901;241;27436;-74
2021/06/28 08:05:37;;;;;;;3.03;2.83;;;;;;;;;;491882;242;27516;-74
2021/06/28 08:07:40;;;;;;;3.37;3.13;;;;;;;;;;491901;241;27421;-74
2021/06/28 08:09:42;;;;;;;3.70;3.20;;;;;;;;;;491862;241;27897;-74
2021/06/28 08:11:44;;;;;;;3.13;2.93;;;;;;;;;;491889;241;27422;-74
2021/06/28 08:13:46;;;;;;;3.90;3.60;;;;;;;;;;491905;241;27486;-74
2021/06/28 08:15:48;;;;;;;3.30;3.10;;;;;;;;;;491894;242;27417;-74
2021/06/28 08:17:50;;;;;;;3.10;2.90;;;;;;;;;;491887;241;27476;-74
2021/06/28 08:19:52;;;;;;;3.47;3.17;;;;;;;;;;491881;241;27425;-73
2021/06/28 08:21:54;;;;;;;3.20;2.93;;;;;;;;;;491941;241;27484;-74
2021/06/28 08:23:56;;;;;;;3.70;3.30;;;;;;;;;;491893;241;27424;-74
2021/06/28 08:25:59;;;;;;;3.23;3.03;;;;;;;;;;491906;240;27591;-74
2021/06/28 08:28:01;;;;;;;3.57;3.27;;;;;;;;;;491878;241;27429;-74
2021/06/28 08:30:03;;;;;;;3.77;3.47;;;;;;;;;;491926;241;27453;-74
2021/06/28 08:32:05;;;;;;;3.40;3.20;;;;;;;;;;491902;241;27461;-74
2021/06/28 08:34:07;;;;;;;3.43;3.23;;;;;;;;;;491892;241;27486;-74
2021/06/28 08:36:09;;;;;;;7.03;3.53;;;;;;;;;;491648;241;27429;-74
2021/06/28 08:38:12;;;;;;;3.27;3.00;;;;;;;;;;491874;241;27871;-74
2021/06/28 08:40:13;;;;;;;3.57;3.33;;;;;;;;;;491895;241;27409;-74
2021/06/28 08:42:17;;;;;;;6.20;3.50;;;;;;;;;;491924;241;27374;-74
2021/06/28 08:44:18;;;;;;;3.40;3.20;;;;;;;;;;491891;240;27437;-74
2021/06/28 08:46:20;;;;;;;3.20;3.00;;;;;;;;;;491922;241;27811;-74
2021/06/28 08:48:22;;;;;;;3.40;3.20;;;;;;;;;;491928;241;27508;-74
2021/06/28 08:50:24;;;;;;;3.47;3.27;;;;;;;;;;491942;242;27825;-74
2021/06/28 08:52:26;;;;;;;3.30;3.10;;;;;;;;;;491907;241;27369;-74
2021/06/28 08:54:28;;;;;;;3.70;3.40;;;;;;;;;;491939;241;28567;-74
2021/06/28 08:56:30;;;;;;;3.53;3.33;;;;;;;;;;491927;241;27425;-74
2021/06/28 08:58:32;;;;;;;3.50;3.30;;;;;;;;;;491895;241;27397;-74
2021/06/28 09:00:35;;;;;;;3.13;2.93;;;;;;;;;;491905;242;27410;-74
2021/06/28 09:02:37;;;;;;;3.30;3.10;;;;;;;;;;491919;241;28014;-72
2021/06/28 09:04:39;;;;;;;4.03;3.73;;;;;;;;;;491930;241;27492;-75
2021/06/28 09:06:42;;;;;;;4.67;4.37;;;;;;;;;;491931;241;27405;-74
2021/06/28 09:08:43;;;;;;;5.07;3.90;;;;;;;;;;491922;240;27456;-74
2021/06/28 09:10:45;;;;;;;5.63;3.90;;;;;;;;;;491914;241;27401;-73
2021/06/28 09:12:47;;;;;;;3.40;3.20;;;;;;;;;;491940;241;27528;-74
2021/06/28 09:14:49;;;;;;;3.63;3.40;;;;;;;;;;491894;241;27468;-74
2021/06/28 09:16:51;;;;;;;3.93;3.70;;;;;;;;;;491891;241;27417;-74
2021/06/28 09:18:54;;;;;;;3.67;3.37;;;;;;;;;;491916;241;27484;-73
2021/06/28 09:20:56;;;;;;;4.13;3.83;;;;;;;;;;491908;241;27420;-73
2021/06/28 09:22:58;;;;;;;3.80;3.50;;;;;;;;;;491923;241;27367;-74
2021/06/28 09:25:00;;;;;;;3.50;3.30;;;;;;;;;;491894;241;27385;-74
2021/06/28 09:27:02;;;;;;;3.57;3.23;;;;;;;;;;491947;241;27492;-73
2021/06/28 09:29:04;;;;;;;3.20;2.90;;;;;;;;;;491905;241;27505;-73
2021/06/28 09:31:06;;;;;;;3.20;3.00;;;;;;;;;;491651;241;27442;-73
2021/06/28 09:33:08;;;;;;;3.10;2.90;;;;;;;;;;491914;242;27464;-73
2021/06/28 09:35:10;;;;;;;3.20;3.00;;;;;;;;;;491912;240;27442;-73
2021/06/28 09:37:13;;;;;;;3.10;2.90;;;;;;;;;;491902;241;27389;-73
2021/06/28 09:39:15;;;;;;;3.60;3.30;;;;;;;;;;491940;241;27398;-73
2021/06/28 09:41:17;;;;;;;2.90;2.80;;;;;;;;;;491912;241;27425;-73
2021/06/28 09:43:19;;;;;;;3.23;2.93;;;;;;;;;;491906;241;27377;-73
2021/06/28 09:45:22;;;;;;;2.80;2.67;;;;;;;;;;491916;241;27489;-74
2021/06/28 09:47:23;;;;;;;2.90;2.70;;;;;;;;;;491912;242;27436;-73
2021/06/28 09:49:25;;;;;;;3.10;2.90;;;;;;;;;;491921;241;27440;-73
2021/06/28 09:51:27;;;;;;;3.40;3.13;;;;;;;;;;491907;241;27968;-73
2021/06/28 09:53:29;;;;;;;3.93;2.90;;;;;;;;;;491927;241;27381;-73
2021/06/28 09:55:36;;;;;;;3.30;3.10;;;;;;;;;;491923;241;27887;-74
2021/06/28 09:57:37;;;;;;;2.80;2.70;;;;;;;;;;491951;240;27428;-73
2021/06/28 09:59:39;;;;;;;3.03;2.83;;;;;;;;;;491914;241;27430;-73
2021/06/28 10:01:41;;;;;;;2.90;2.70;;;;;;;;;;491933;241;27389;-73
2021/06/28 10:03:45;;;;;;;3.50;3.20;;;;;;;;;;491726;241;27905;-73
2021/06/28 10:05:56;;;;;;;3.33;3.13;;;;;;;;;;491755;240;27435;-73
2021/06/28 10:07:47;;;;;;;2.70;2.60;;;;;;;;;;491843;240;27830;-74
2021/06/28 10:09:49;;;;;;;5.83;2.90;;;;;;;;;;491895;241;27453;-74
2021/06/28 10:11:52;;;;;;;3.07;2.87;;;;;;;;;;491932;241;27945;-74
2021/06/28 10:13:54;;;;;;;4.83;3.30;;;;;;;;;;491930;240;27378;-73
2021/06/28 10:15:56;;;;;;;2.73;2.53;;;;;;;;;;491941;240;27935;-73
2021/06/28 10:17:58;;;;;;;3.47;3.27;;;;;;;;;;491943;241;27513;-74
2021/06/28 10:20:00;;;;;;;3.20;3.00;;;;;;;;;;491930;241;27845;-74
2021/06/28 10:22:02;;;;;;;2.93;2.73;;;;;;;;;;491933;241;27994;-73
2021/06/28 10:24:04;;;;;;;3.00;2.80;;;;;;;;;;491954;241;27837;-74
2021/06/28 10:26:06;;;;;;;2.70;2.50;;;;;;;;;;491948;241;27440;-73
2021/06/28 10:28:08;;;;;;;2.90;2.70;;;;;;;;;;491940;241;27950;-74
2021/06/28 10:30:10;;;;;;;3.33;3.03;;;;;;;;;;491940;241;27373;-74
2021/06/28 10:32:13;;;;;;;2.90;2.70;;;;;;;;;;491950;241;27900;-73
2021/06/28 10:34:15;;;;;;;2.97;2.67;;;;;;;;;;491890;242;27477;-74
2021/06/28 10:36:17;;;;;;;2.97;2.73;;;;;;;;;;491920;241;27961;-73
2021/06/28 10:38:19;;;;;;;3.20;3.00;;;;;;;;;;491938;241;27450;-73
2021/06/28 10:40:21;;;;;;;2.60;2.40;;;;;;;;;;491886;241;28748;-73
2021/06/28 10:42:23;;;;;;;3.27;3.07;;;;;;;;;;491925;241;27394;-73
2021/06/28 10:44:26;;;;;;;2.60;2.50;;;;;;;;;;491905;241;27912;-74
2021/06/28 10:46:27;;;;;;;2.60;2.30;;;;;;;;;;491908;240;27597;-74
2021/06/28 10:48:30;;;;;;;2.97;2.77;;;;;;;;;;491924;241;27881;-73
2021/06/28 10:50:32;;;;;;;3.23;3.03;;;;;;;;;;491884;241;27413;-74
2021/06/28 10:52:34;;;;;;;3.23;2.70;;;;;;;;;;491910;241;27884;-73
2021/06/28 10:54:36;;;;;;;3.27;2.97;;;;;;;;;;491903;241;27488;-73
2021/06/28 10:56:38;;;;;;;3.10;2.90;;;;;;;;;;491901;241;27997;-73
2021/06/28 10:58:40;;;;;;;5.10;3.33;;;;;;;;;;491897;241;27416;-74
2021/06/28 11:00:42;;;;;;;3.00;2.80;;;;;;;;;;491901;242;27921;-73
2021/06/28 11:02:44;;;;;;;3.17;2.97;;;;;;;;;;491899;241;27421;-74
2021/06/28 11:04:46;;;;;;;2.90;2.70;;;;;;;;;;491859;242;27968;-74
2021/06/28 11:06:49;;;;;;;3.00;2.80;;;;;;;;;;491931;241;27649;-74
2021/06/28 11:08:51;;;;;;;2.77;2.57;;;;;;;;;;491920;241;28202;-74
2021/06/28 11:10:53;;;;;;;3.10;2.90;;;;;;;;;;491887;241;27787;-73
2021/06/28 11:12:55;;;;;;;3.13;2.93;;;;;;;;;;491897;241;27978;-74
2021/06/28 11:14:57;;;;;;;2.80;2.60;;;;;;;;;;491871;241;27617;-73
2021/06/28 11:17:05;;;;;;;3.63;3.40;;;;;;;;;;491923;241;28215;-73
2021/06/28 11:19:01;;;;;;;3.13;2.93;;;;;;;;;;492015;240;27734;-73
2021/06/28 11:21:03;;;;;;;3.17;2.87;;;;;;;;;;491910;241;28103;-74
2021/06/28 11:23:06;;;;;;;3.10;2.90;;;;;;;;;;491906;241;27859;-74
2021/06/28 11:25:08;;;;;;;3.40;3.10;;;;;;;;;;491919;240;28105;-74
2021/06/28 11:27:10;;;;;;;3.60;3.10;;;;;;;;;;491940;241;27846;-74
2021/06/28 11:29:12;;;;;;;3.07;2.87;;;;;;;;;;491900;241;28513;-73
2021/06/28 11:31:15;;;;;;;3.07;2.83;;;;;;;;;;491892;241;27723;-74
2021/06/28 11:33:16;;;;;;;2.13;2.03;;;;;;;;;;491918;240;28221;-74
2021/06/28 11:35:18;;;;;;;6.03;2.80;;;;;;;;;;491906;241;28075;-74
2021/06/28 11:37:20;;;;;;;2.70;2.60;;;;;;;;;;491897;241;28075;-73
2021/06/28 11:39:24;;;;;;;2.90;2.70;;;;;;;;;;491915;241;27966;-74
2021/06/28 11:41:24;;;;;;;2.80;2.60;;;;;;;;;;491917;240;29190;-74
2021/06/28 11:43:27;;;;;;;2.63;2.43;;;;;;;;;;491894;241;27975;-74
2021/06/28 11:45:29;;;;;;;2.67;2.47;;;;;;;;;;491900;241;28571;-74
2021/06/28 11:47:31;;;;;;;2.60;2.50;;;;;;;;;;491880;241;28310;-74
2021/06/28 11:49:33;;;;;;;3.17;2.80;;;;;;;;;;491887;241;28526;-74
2021/06/28 11:51:35;;;;;;;2.90;2.70;;;;;;;;;;491922;241;28196;-74
2021/06/28 11:53:37;;;;;;;2.80;2.50;;;;;;;;;;491881;241;28678;-75
2021/06/28 11:55:39;;;;;;;3.00;2.47;;;;;;;;;;491904;241;28441;-74
2021/06/28 11:57:41;;;;;;;3.50;3.30;;;;;;;;;;491889;241;28573;-74
2021/06/28 11:59:43;;;;;;;3.50;3.30;;;;;;;;;;491853;241;28451;-74
2021/06/28 12:01:46;;;;;;;3.10;2.90;;;;;;;;;;491881;241;28775;-74
2021/06/28 12:03:48;;;;;;;2.70;2.50;;;;;;;;;;491869;241;28442;-74
2021/06/28 12:05:50;;;;;;;3.13;2.93;;;;;;;;;;491891;241;28733;-74
2021/06/28 12:07:52;;;;;;;2.47;2.37;;;;;;;;;;491899;241;28220;-74
2021/06/28 12:09:54;;;;;;;3.00;2.80;;;;;;;;;;491915;242;28562;-74
2021/06/28 12:11:56;;;;;;;2.87;2.67;;;;;;;;;;491900;242;28247;-73